Saint Paul, MN (55114)

8:49 PM CDT on August 29, 2015 (GMT -0500)
Blair Manor, Midway | | Change Station
CLOSE
Current Station
Personal Weather Station
Location: St Paul, MN
Elevation: 928 ft
Nearby Weather Stations

Elev 928 ft 44.96 °N, 93.17 °W | Updated 8 seconds ago

Partly Cloudy
Partly Cloudy
70.2 °F
Feels Like 71 °F
N
0.0
Wind Variable Wind from South
Gusts 0.0 mph

Today
High -- | Low -- °F
--% Chance of Precip.
Yesterday
High -- | Low -- °F
Precip. -- in
6:31 AM 7:55 PM
Full, 100% visible
Pressure 30.00 in
Visibility 10.0 miles
Clouds Mostly Cloudy 30000 ft
Heat Index 71 °F
Dew Point 63 °F
Humidity 79%
Rainfall 0.00 in
Snow Depth Not available.
UV 0 out of 12
Pollen 8.30 out of 12
Air Quality Not available.
Flu Activity Not available.
METAR KMSP 300053Z 17004KT 10SM BKN300 22/17 A3000 RMK AO2 SLP158 T02220172
Pressure 30.00 in
Visibility 10.0 miles
Clouds Mostly Cloudy 30000 ft
Heat Index 71 °F
Dew Point 63 °F
Humidity 79%
Rainfall 0.00 in
Snow Depth Not available.
UV 0 out of 12
Pollen 8.30 out of 12
Air Quality Not available.
Flu Activity Not available.
METAR KMSP 300053Z 17004KT 10SM BKN300 22/17 A3000 RMK AO2 SLP158 T02220172

10-Day Weather Forecast

×

Almanac

Astronomy

Aug. 29, 2015 Rise Set
Actual Time
Civil Twilight
Nautical Twilight
Astronomical Twilight
Moon
Length of Visible Light
Length of Day
Tomorrow will be .
, % of the Moon is Illuminated

Today's Extremes

State Highs State Lows

Community

WunderPhotos

Upload Photos

1,850,826 photos uploaded!

WunderBlogs® & News

Nearby

Air Quality

  Air Quality AQ Index Pollutant
Not available.

Snow Depth

Station Depth Elevation

Earthquake Activity

City Distance Mag. Time & Date
Minimum magnitude displayed is 2.5.

Coastal Water Temperatures

Place Temperature

Stations

Nearby Weather Stations

Station Location Temp. Windchill Dew Point Humidity Wind Precip. Elev Updated Type